No 31 Takemaru — JG5731 — position and weather

sailwx.info

Track history (hours):
 
Tides and Currents Weather Stations Pressure Air Temp Water Temp Dewpoint Dewpoint Depression Visibility Wind Speed Wind Dir Waves Ship Positions

No 31 Takemaru

Last reported at 2017-Jul-21 04:45 UTC. Time now 2017-Jul-21 06:27 UTC.
Position N 34°39' E 135°28'.

Length 31 m; draft 2.5 m.

Type: Tug. MMSI: 431000439.

Date/timePositionNaut miles runAvg speedWind from/ knotsBaromVisibWave heightAir tempDewpointWater temp
2017-Jul-21 04:45N 34°39' E 135°28'310.7
2017-Jul-21 04:30N 34°39' E 135°25'510.7
2017-Jul-21 04:00N 34°33' E 135°25'0 0.3
2017-Jul-21 03:27N 34°33' E 135°25'2 3.5
2017-Jul-21 02:56N 34°34' E 135°23'3 0.7
2017-Jul-20 22:47N 34°31' E 135°24'1 2.2
2017-Jul-20 22:26N 34°31' E 135°23'2 3.9
2017-Jul-20 21:59N 34°33' E 135°22'0 0.3
2017-Jul-20 21:30N 34°33' E 135°22'3 5.8
2017-Jul-20 21:00N 34°36' E 135°23'5 9.1
2017-Jul-20 20:29N 34°39' E 135°27'0 0.5
2017-Jul-20 19:44N 34°39' E 135°28'0 0.0
2017-Jul-20 14:31N 34°39' E 135°28'0 0.0
2017-Jul-20 13:57N 34°39' E 135°28'0 0.0
2017-Jul-20 12:57N 34°39' E 135°28'0 0.0
2017-Jul-20 12:30N 34°39' E 135°28'0 0.0
2017-Jul-20 11:08N 34°39' E 135°28'0 0.0
2017-Jul-20 10:56N 34°39' E 135°28'0 0.0
2017-Jul-20 10:25N 34°39' E 135°28'0 0.0
2017-Jul-20 10:00N 34°39' E 135°28'0 0.0
2017-Jul-20 09:22N 34°39' E 135°28'0 0.0
2017-Jul-20 09:00N 34°39' E 135°28'4 8.6
2017-Jul-20 08:29N 34°37' E 135°23'612.8
2017-Jul-20 08:00N 34°31' E 135°21'5 6.3
2017-Jul-20 07:11N 34°26' E 135°19'0 0.4
2017-Jul-20 07:00N 34°26' E 135°19'5 9.9
2017-Jul-20 06:30N 34°30' E 135°22'1 0.7
2017-Jul-20 04:54N 34°31' E 135°23'0 0.2
2017-Jul-20 04:19N 34°31' E 135°23'0 0.1
2017-Jul-20 03:58N 34°31' E 135°23'3 1.3
2017-Jul-20 01:54N 34°33' E 135°24'1 3.6
2017-Jul-20 01:29N 34°33' E 135°22'3 5.4
2017-Jul-20 01:00N 34°34' E 135°19'1 2.6
2017-Jul-20 00:30N 34°35' E 135°20'510.5
2017-Jul-20 00:00N 34°39' E 135°25'3 5.3
2017-Jul-19 23:29N 34°39' E 135°28'0 0.0
2017-Jul-19 23:00N 34°39' E 135°28'0 0.0
2017-Jul-19 22:29N 34°39' E 135°28'0 0.0
2017-Jul-19 21:58N 34°39' E 135°28'0 0.0
2017-Jul-19 21:30N 34°39' E 135°28'0 0.0
2017-Jul-19 20:59N 34°39' E 135°28'0 0.0
2017-Jul-19 20:30N 34°39' E 135°28'0 0.0
2017-Jul-19 16:57N 34°39' E 135°28'0 0.0
2017-Jul-19 16:30N 34°39' E 135°28'0 0.0
2017-Jul-19 15:57N 34°39' E 135°28'0 0.0
2017-Jul-19 15:28N 34°39' E 135°28'0 0.0
2017-Jul-19 14:58N 34°39' E 135°28'0 0.0
2017-Jul-19 14:13N 34°39' E 135°28'0 0.0
2017-Jul-19 14:00N 34°39' E 135°28'0 0.0
2017-Jul-19 13:30N 34°39' E 135°28'0 0.0
2017-Jul-19 13:00N 34°39' E 135°28'4 8.0
2017-Jul-19 12:30N 34°38' E 135°23'612.3
2017-Jul-19 12:00N 34°32' E 135°21'612.4
2017-Jul-19 11:30N 34°26' E 135°19'0 0.1
2017-Jul-19 10:59N 34°26' E 135°19'0 0.1
2017-Jul-19 10:30N 34°26' E 135°19'610.1
2017-Jul-19 09:56N 34°31' E 135°21'510.8
2017-Jul-19 09:30N 34°36' E 135°23'5 9.2
2017-Jul-19 09:00N 34°39' E 135°27'1 0.6
2017-Jul-19 07:45N 34°39' E 135°28'0 0.0
2017-Jul-19 07:14N 34°39' E 135°28'0 0.0
2017-Jul-19 06:49N 34°39' E 135°28'0 0.0
2017-Jul-19 06:30N 34°39' E 135°28'0 0.0
2017-Jul-19 05:36N 34°39' E 135°28'0 0.0
2017-Jul-19 04:14N 34°39' E 135°28'0 0.0
2017-Jul-18 23:18N 34°39' E 135°28'0 0.0
2017-Jul-18 22:48N 34°39' E 135°28'0 0.0
2017-Jul-18 22:30N 34°39' E 135°28'0 0.0
2017-Jul-18 21:58N 34°39' E 135°28'0 0.0
2017-Jul-18 21:30N 34°39' E 135°28'0 0.0
2017-Jul-18 20:51N 34°39' E 135°28'0 0.0
2017-Jul-18 20:29N 34°39' E 135°28'0 0.0
2017-Jul-18 19:57N 34°39' E 135°28'0 0.0
2017-Jul-18 18:02N 34°39' E 135°28'0 0.0
2017-Jul-18 17:46N 34°39' E 135°28'0 0.0
2017-Jul-18 17:28N 34°39' E 135°28'2 4.5
2017-Jul-18 17:00N 34°39' E 135°25'0 0.2
2017-Jul-18 16:30N 34°39' E 135°26'1 2.5
2017-Jul-18 16:00N 34°39' E 135°27'1 0.7
2017-Jul-18 14:57N 34°39' E 135°28'0 0.0
2017-Jul-18 13:58N 34°39' E 135°28'0 0.0
2017-Jul-18 13:25N 34°39' E 135°28'0 0.0
2017-Jul-18 12:56N 34°39' E 135°28'0 0.0
2017-Jul-18 12:15N 34°39' E 135°28'0 0.0
2017-Jul-18 11:56N 34°39' E 135°28'0 0.0
2017-Jul-18 11:30N 34°39' E 135°28'1 1.8
2017-Jul-18 11:00N 34°39' E 135°27'2 3.9
2017-Jul-18 10:30N 34°40' E 135°25'3 5.3
2017-Jul-18 09:59N 34°39' E 135°28'0 0.0
2017-Jul-18 09:18N 34°39' E 135°28'0 0.0
2017-Jul-18 08:58N 34°39' E 135°28'0 0.0
2017-Jul-18 07:14N 34°39' E 135°28'0 0.0
2017-Jul-18 07:00N 34°39' E 135°28'0 0.0
2017-Jul-18 06:14N 34°39' E 135°28'0 0.0
2017-Jul-18 05:28N 34°39' E 135°28'0 0.0
2017-Jul-18 05:00N 34°39' E 135°28'0 0.0
2017-Jul-18 04:28N 34°39' E 135°28'0 0.0
2017-Jul-18 02:58N 34°39' E 135°28'0 0.0
2017-Jul-18 02:28N 34°39' E 135°28'0 0.0
2017-Jul-18 01:56N 34°39' E 135°28'0 0.0
2017-Jul-18 01:30N 34°39' E 135°28'2 4.3
2017-Jul-18 01:00N 34°39' E 135°25'1 2.1
2017-Jul-18 00:30N 34°38' E 135°25'1 1.1
2017-Jul-18 00:00N 34°38' E 135°24'0 0.8
2017-Jul-17 23:30N 34°38' E 135°24'0 0.9
2017-Jul-17 23:00N 34°38' E 135°23'0 0.2
2017-Jul-17 22:30N 34°38' E 135°23'1 1.4
2017-Jul-17 22:00N 34°38' E 135°24'2 4.9
2017-Jul-17 21:30N 34°38' E 135°27'0 0.3
2017-Jul-17 21:00N 34°38' E 135°27'0 0.1
2017-Jul-17 20:30N 34°38' E 135°26'1 0.2
2017-Jul-17 12:46N 34°39' E 135°28'0 0.0
2017-Jul-17 07:45N 34°39' E 135°28'310.4
2017-Jul-17 07:30N 34°39' E 135°25'510.5
2017-Jul-17 07:00N 34°33' E 135°24'1 1.7
2017-Jul-17 06:09N 34°33' E 135°26'0 1.1
2017-Jul-17 05:56N 34°33' E 135°26'2 3.7
2017-Jul-17 05:29N 34°33' E 135°24'1 0.2
2017-Jul-16 21:26N 34°31' E 135°24'0 0.3
2017-Jul-16 20:47N 34°32' E 135°24'2 5.1
2017-Jul-16 20:28N 34°33' E 135°24'510.9
2017-Jul-16 20:00N 34°38' E 135°24'4 6.6
2017-Jul-16 19:28N 34°39' E 135°28'0 0.0
2017-Jul-16 19:00N 34°39' E 135°28'0 0.0
2017-Jul-16 18:18N 34°39' E 135°28'0 0.0
2017-Jul-16 17:58N 34°39' E 135°28'0 0.0
2017-Jul-16 17:00N 34°39' E 135°28'0 0.0
2017-Jul-16 16:29N 34°39' E 135°28'0 0.0
2017-Jul-16 15:59N 34°39' E 135°28'0 0.0
2017-Jul-16 15:26N 34°39' E 135°28'0 0.0
2017-Jul-16 14:58N 34°39' E 135°28'0 0.0
2017-Jul-16 14:23N 34°39' E 135°28'0 0.0
2017-Jul-16 13:57N 34°39' E 135°28'0 0.0
2017-Jul-16 13:28N 34°39' E 135°28'0 0.0
2017-Jul-16 12:59N 34°39' E 135°28'0 0.0
2017-Jul-16 12:30N 34°39' E 135°28'0 0.0
2017-Jul-16 11:59N 34°39' E 135°28'0 0.0
2017-Jul-16 11:24N 34°39' E 135°28'2 6.1
2017-Jul-16 11:00N 34°39' E 135°25'510.5
2017-Jul-16 10:30N 34°34' E 135°24'2 3.6
2017-Jul-16 10:00N 34°32' E 135°24'2 3.1
2017-Jul-16 09:30N 34°33' E 135°23'0 0.0
2017-Jul-16 08:55N 34°33' E 135°23'3 6.1
2017-Jul-16 08:30N 34°31' E 135°24'0 0.0
2017-Jul-16 07:56N 34°31' E 135°24'0 0.0
2017-Jul-16 07:30N 34°31' E 135°24'0 0.0
2017-Jul-16 06:52N 34°31' E 135°24'0 0.0
2017-Jul-16 06:26N 34°31' E 135°24'0 0.0
2017-Jul-16 06:00N 34°31' E 135°24'0 0.0
2017-Jul-16 05:29N 34°31' E 135°24'0 0.0
2017-Jul-16 04:58N 34°31' E 135°24'0 0.0
2017-Jul-16 04:30N 34°31' E 135°24'0 0.0
2017-Jul-16 03:58N 34°31' E 135°24'1 2.0
2017-Jul-16 03:25N 34°32' E 135°23'3 6.5
2017-Jul-16 02:59N 34°33' E 135°26'0 0.0
2017-Jul-16 02:30N 34°33' E 135°26'0 0.0
2017-Jul-16 01:58N 34°33' E 135°26'0 0.7
2017-Jul-16 01:22N 34°34' E 135°26'1 2.5
2017-Jul-16 00:59N 34°33' E 135°24'4 8.8
2017-Jul-16 00:30N 34°33' E 135°19'1 1.8
2017-Jul-16 00:00N 34°34' E 135°18'2 3.4
2017-Jul-15 23:29N 34°35' E 135°20'510.9
2017-Jul-15 23:00N 34°39' E 135°25'3 5.5
2017-Jul-15 22:30N 34°39' E 135°28'0 0.0
2017-Jul-15 22:00N 34°39' E 135°28'0 0.0
2017-Jul-15 21:30N 34°39' E 135°28'0 0.0
2017-Jul-15 20:58N 34°39' E 135°28'0 0.0
2017-Jul-15 20:30N 34°39' E 135°28'0 0.0
2017-Jul-15 20:00N 34°39' E 135°28'0 0.0
2017-Jul-15 19:30N 34°39' E 135°28'0 0.0
2017-Jul-15 18:59N 34°39' E 135°28'0 0.0
2017-Jul-15 18:30N 34°39' E 135°28'0 0.0
2017-Jul-15 18:00N 34°39' E 135°28'0 0.0
2017-Jul-15 17:30N 34°39' E 135°28'0 0.0
2017-Jul-15 16:58N 34°39' E 135°28'0 0.0
2017-Jul-15 16:30N 34°39' E 135°28'0 0.0
2017-Jul-15 16:00N 34°39' E 135°28'0 0.0
2017-Jul-15 15:30N 34°39' E 135°28'0 0.0
2017-Jul-15 15:00N 34°39' E 135°28'0 0.0
2017-Jul-15 14:00N 34°39' E 135°28'0 0.0
2017-Jul-15 13:30N 34°39' E 135°28'0 0.0
2017-Jul-15 13:00N 34°39' E 135°28'0 0.0
2017-Jul-15 12:30N 34°39' E 135°28'0 0.0
2017-Jul-15 11:59N 34°39' E 135°28'0 0.0
2017-Jul-15 11:29N 34°39' E 135°28'0 0.0
2017-Jul-15 09:55N 34°39' E 135°28'0 0.0
2017-Jul-15 09:22N 34°39' E 135°28'0 0.0
2017-Jul-15 08:56N 34°39' E 135°28'0 0.0
2017-Jul-15 08:30N 34°39' E 135°28'4 9.0
2017-Jul-15 08:00N 34°37' E 135°23'3 6.8
2017-Jul-15 07:30N 34°34' E 135°25'2 3.3
2017-Jul-15 07:00N 34°34' E 135°23'3 5.6
2017-Jul-15 06:29N 34°36' E 135°25'1 1.3
2017-Jul-15 05:50N 34°35' E 135°26'2 4.6
2017-Jul-15 05:30N 34°36' E 135°25'1 1.4
2017-Jul-15 05:00N 34°36' E 135°24'0 0.0
2017-Jul-15 04:30N 34°36' E 135°24'0 0.0
2017-Jul-15 04:00N 34°36' E 135°24'0 0.0
2017-Jul-15 03:30N 34°36' E 135°24'0 0.0
2017-Jul-15 03:00N 34°36' E 135°24'0 0.0
2017-Jul-15 02:30N 34°36' E 135°24'0 0.0
2017-Jul-15 01:57N 34°36' E 135°24'0 0.0
2017-Jul-15 01:30N 34°36' E 135°24'0 0.0
2017-Jul-15 00:51N 34°36' E 135°24'0 0.0
2017-Jul-15 00:30N 34°36' E 135°24'0 0.0
2017-Jul-15 00:00N 34°36' E 135°24'0 0.0
2017-Jul-14 23:29N 34°36' E 135°24'3 6.1
2017-Jul-14 23:00N 34°39' E 135°24'1 2.1
2017-Jul-14 22:30N 34°38' E 135°23'1 2.5
2017-Jul-14 22:00N 34°39' E 135°25'3 4.9
2017-Jul-14 21:27N 34°39' E 135°28'0 0.0
2017-Jul-14 20:48N 34°39' E 135°28'0 0.0
2017-Jul-14 20:30N 34°39' E 135°28'0 0.0
2017-Jul-14 19:59N 34°39' E 135°28'0 0.0
2017-Jul-14 19:30N 34°39' E 135°28'0 0.0
2017-Jul-14 18:59N 34°39' E 135°28'0 0.0
2017-Jul-14 18:28N 34°39' E 135°28'0 0.0
2017-Jul-14 17:48N 34°39' E 135°28'0 0.0
2017-Jul-14 17:25N 34°39' E 135°28'0 0.0
2017-Jul-14 16:45N 34°39' E 135°28'0 0.0
2017-Jul-14 15:42N 34°39' E 135°28'0 0.0
2017-Jul-14 15:30N 34°39' E 135°28'0 0.0
2017-Jul-14 13:47N 34°39' E 135°28'0 0.0
2017-Jul-14 11:51N 34°39' E 135°28'0 0.0
2017-Jul-14 10:23N 34°39' E 135°28'0 0.0
2017-Jul-14 10:00N 34°39' E 135°28'0 0.0
2017-Jul-14 09:27N 34°39' E 135°28'0 0.0
2017-Jul-14 08:59N 34°39' E 135°28'0 0.0
2017-Jul-14 08:29N 34°39' E 135°28'0 0.0
2017-Jul-14 05:31N 34°39' E 135°28'0 0.0
2017-Jul-14 05:07N 34°39' E 135°28'0 0.0
2017-Jul-14 04:52N 34°39' E 135°28'4 9.8
2017-Jul-14 04:30N 34°38' E 135°24'611.5
2017-Jul-14 04:00N 34°32' E 135°23'1 2.7
2017-Jul-14 03:27N 34°31' E 135°23'1 2.5
2017-Jul-14 02:55N 34°32' E 135°23'0 0.9
2017-Jul-14 02:27N 34°32' E 135°22'3 5.7
2017-Jul-14 01:57N 34°35' E 135°23'4 9.6
2017-Jul-14 01:30N 34°39' E 135°26'2 1.4
2017-Jul-14 00:13N 34°39' E 135°28'0 0.0
2017-Jul-13 23:49N 34°39' E 135°28'0 0.0
2017-Jul-13 23:30N 34°39' E 135°28'0 0.0
2017-Jul-13 22:59N 34°39' E 135°28'0 0.0
2017-Jul-13 22:30N 34°39' E 135°28'0 0.0
2017-Jul-13 21:50N 34°39' E 135°28'0 0.0
2017-Jul-13 21:23N 34°39' E 135°28'0 0.0
2017-Jul-13 21:00N 34°39' E 135°28'0 0.0
2017-Jul-13 20:30N 34°39' E 135°28'0 0.0
2017-Jul-13 19:59N 34°39' E 135°28'0 0.0
2017-Jul-13 19:30N 34°39' E 135°28'0 0.0
2017-Jul-13 16:42N 34°39' E 135°28'0 0.0
2017-Jul-13 16:30N 34°39' E 135°28'0 0.0
2017-Jul-13 15:36N 34°39' E 135°28'0 0.0
2017-Jul-13 15:20N 34°39' E 135°28'0 0.0
2017-Jul-13 14:57N 34°39' E 135°28'0 0.0
2017-Jul-13 14:30N 34°39' E 135°28'0 0.0
2017-Jul-13 13:53N 34°39' E 135°28'0 0.0
2017-Jul-13 12:25N 34°39' E 135°28'0 0.0
2017-Jul-13 10:19N 34°39' E 135°28'0 0.0
2017-Jul-13 08:40N 34°39' E 135°28'0 0.0
2017-Jul-13 08:30N 34°39' E 135°28'2 4.0
2017-Jul-13 08:00N 34°39' E 135°26'0 0.1
2017-Jul-13 07:29N 34°39' E 135°26'2 3.2
2017-Jul-13 06:59N 34°39' E 135°27'0 0.1
2017-Jul-13 00:40N 34°39' E 135°28'0 0.0
2017-Jul-13 00:27N 34°39' E 135°28'0 0.0
2017-Jul-13 00:00N 34°39' E 135°28'0 0.0
2017-Jul-12 23:22N 34°39' E 135°28'0 0.0
2017-Jul-12 22:52N 34°39' E 135°28'3 7.0
2017-Jul-12 22:30N 34°39' E 135°25'1 2.3
2017-Jul-12 22:00N 34°38' E 135°24'2 3.6
2017-Jul-12 21:30N 34°39' E 135°26'2 2.7
2017-Jul-12 20:52N 34°39' E 135°28'0 0.0
2017-Jul-12 20:29N 34°39' E 135°28'0 0.0
2017-Jul-12 19:52N 34°39' E 135°28'0 0.0
2017-Jul-12 10:25N 34°39' E 135°28'3 8.0
2017-Jul-12 10:00N 34°39' E 135°24'0 0.2
2017-Jul-12 09:30N 34°39' E 135°24'3 0.4
2017-Jul-11 23:46N 34°39' E 135°28'2 9.3
2017-Jul-11 23:31N 34°39' E 135°25'1 2.5
2017-Jul-11 23:00N 34°38' E 135°25'1 2.1
2017-Jul-11 22:30N 34°38' E 135°23'0 0.7
2017-Jul-11 22:00N 34°38' E 135°23'1 1.1
2017-Jul-11 21:30N 34°38' E 135°23'4 7.2
2017-Jul-11 21:00N 34°40' E 135°27'1 2.8
2017-Jul-11 20:30N 34°39' E 135°26'2 1.4
2017-Jul-11 19:11N 34°39' E 135°28'0 0.0
2017-Jul-11 18:51N 34°39' E 135°28'0 0.0
2017-Jul-11 18:29N 34°39' E 135°28'0 0.0
2017-Jul-11 17:18N 34°39' E 135°28'0 0.0
2017-Jul-11 17:00N 34°39' E 135°28'0 0.0
2017-Jul-11 16:25N 34°39' E 135°28'0 0.0
2017-Jul-11 15:54N 34°39' E 135°28'0 0.0
2017-Jul-11 15:30N 34°39' E 135°28'0 0.0
2017-Jul-11 14:58N 34°39' E 135°28'0 0.0
2017-Jul-11 14:15N 34°39' E 135°28'0 0.0
2017-Jul-11 13:53N 34°39' E 135°28'0 0.0
2017-Jul-11 13:21N 34°39' E 135°28'0 0.0
2017-Jul-11 12:57N 34°39' E 135°28'0 0.0
2017-Jul-11 12:30N 34°39' E 135°28'0 0.0
2017-Jul-11 11:55N 34°39' E 135°28'0 0.0
2017-Jul-11 11:28N 34°39' E 135°28'0 0.0
2017-Jul-11 10:59N 34°39' E 135°28'0 0.0
2017-Jul-11 10:30N 34°39' E 135°28'0 0.0
2017-Jul-11 09:58N 34°39' E 135°28'0 0.0
2017-Jul-11 09:30N 34°39' E 135°28'0 0.0
2017-Jul-11 08:59N 34°39' E 135°28'0 0.0
2017-Jul-11 08:30N 34°39' E 135°28'0 0.0
2017-Jul-11 06:00N 34°39' E 135°28'  
Track history (hours):
 
Tides and Currents Weather Stations Pressure Air Temp Water Temp Dewpoint Dewpoint Depression Visibility Wind Speed Wind Dir Waves Ship Positions

No 31 Takemaru

Last reported at 2017-Jul-21 04:45 UTC. Time now 2017-Jul-21 06:27 UTC.
Position N 34°39' E 135°28'.

Length 31 m; draft 2.5 m.

Type: Tug. MMSI: 431000439.

Date/timePositionNaut miles runAvg speedWind from/ knotsBaromVisibWave heightAir tempDewpointWater temp
2017-Jul-21 04:45N 34°39' E 135°28'310.7
2017-Jul-21 04:30N 34°39' E 135°25'510.7
2017-Jul-21 04:00N 34°33' E 135°25'0 0.3
2017-Jul-21 03:27N 34°33' E 135°25'2 3.5
2017-Jul-21 02:56N 34°34' E 135°23'3 0.7
2017-Jul-20 22:47N 34°31' E 135°24'1 2.2
2017-Jul-20 22:26N 34°31' E 135°23'2 3.9
2017-Jul-20 21:59N 34°33' E 135°22'0 0.3
2017-Jul-20 21:30N 34°33' E 135°22'3 5.8
2017-Jul-20 21:00N 34°36' E 135°23'5 9.1
2017-Jul-20 20:29N 34°39' E 135°27'0 0.5
2017-Jul-20 19:44N 34°39' E 135°28'0 0.0
2017-Jul-20 14:31N 34°39' E 135°28'0 0.0
2017-Jul-20 13:57N 34°39' E 135°28'0 0.0
2017-Jul-20 12:57N 34°39' E 135°28'0 0.0
2017-Jul-20 12:30N 34°39' E 135°28'0 0.0
2017-Jul-20 11:08N 34°39' E 135°28'0 0.0
2017-Jul-20 10:56N 34°39' E 135°28'0 0.0
2017-Jul-20 10:25N 34°39' E 135°28'0 0.0
2017-Jul-20 10:00N 34°39' E 135°28'0 0.0
2017-Jul-20 09:22N 34°39' E 135°28'0 0.0
2017-Jul-20 09:00N 34°39' E 135°28'4 8.6
2017-Jul-20 08:29N 34°37' E 135°23'612.8
2017-Jul-20 08:00N 34°31' E 135°21'5 6.3
2017-Jul-20 07:11N 34°26' E 135°19'0 0.4
2017-Jul-20 07:00N 34°26' E 135°19'5 9.9
2017-Jul-20 06:30N 34°30' E 135°22'1 0.7
2017-Jul-20 04:54N 34°31' E 135°23'0 0.2
2017-Jul-20 04:19N 34°31' E 135°23'0 0.1
2017-Jul-20 03:58N 34°31' E 135°23'3 1.3
2017-Jul-20 01:54N 34°33' E 135°24'1 3.6
2017-Jul-20 01:29N 34°33' E 135°22'3 5.4
2017-Jul-20 01:00N 34°34' E 135°19'1 2.6
2017-Jul-20 00:30N 34°35' E 135°20'510.5
2017-Jul-20 00:00N 34°39' E 135°25'3 5.3
2017-Jul-19 23:29N 34°39' E 135°28'0 0.0
2017-Jul-19 23:00N 34°39' E 135°28'0 0.0
2017-Jul-19 22:29N 34°39' E 135°28'0 0.0
2017-Jul-19 21:58N 34°39' E 135°28'0 0.0
2017-Jul-19 21:30N 34°39' E 135°28'0 0.0
2017-Jul-19 20:59N 34°39' E 135°28'0 0.0
2017-Jul-19 20:30N 34°39' E 135°28'0 0.0
2017-Jul-19 16:57N 34°39' E 135°28'0 0.0
2017-Jul-19 16:30N 34°39' E 135°28'0 0.0
2017-Jul-19 15:57N 34°39' E 135°28'0 0.0
2017-Jul-19 15:28N 34°39' E 135°28'0 0.0
2017-Jul-19 14:58N 34°39' E 135°28'0 0.0
2017-Jul-19 14:13N 34°39' E 135°28'0 0.0
2017-Jul-19 14:00N 34°39' E 135°28'0 0.0
2017-Jul-19 13:30N 34°39' E 135°28'0 0.0
2017-Jul-19 13:00N 34°39' E 135°28'4 8.0
2017-Jul-19 12:30N 34°38' E 135°23'612.3
2017-Jul-19 12:00N 34°32' E 135°21'612.4
2017-Jul-19 11:30N 34°26' E 135°19'0 0.1
2017-Jul-19 10:59N 34°26' E 135°19'0 0.1
2017-Jul-19 10:30N 34°26' E 135°19'610.1
2017-Jul-19 09:56N 34°31' E 135°21'510.8
2017-Jul-19 09:30N 34°36' E 135°23'5 9.2
2017-Jul-19 09:00N 34°39' E 135°27'1 0.6
2017-Jul-19 07:45N 34°39' E 135°28'0 0.0
2017-Jul-19 07:14N 34°39' E 135°28'0 0.0
2017-Jul-19 06:49N 34°39' E 135°28'0 0.0
2017-Jul-19 06:30N 34°39' E 135°28'0 0.0
2017-Jul-19 05:36N 34°39' E 135°28'0 0.0
2017-Jul-19 04:14N 34°39' E 135°28'0 0.0
2017-Jul-18 23:18N 34°39' E 135°28'0 0.0
2017-Jul-18 22:48N 34°39' E 135°28'0 0.0
2017-Jul-18 22:30N 34°39' E 135°28'0 0.0
2017-Jul-18 21:58N 34°39' E 135°28'0 0.0
2017-Jul-18 21:30N 34°39' E 135°28'0 0.0
2017-Jul-18 20:51N 34°39' E 135°28'0 0.0
2017-Jul-18 20:29N 34°39' E 135°28'0 0.0
2017-Jul-18 19:57N 34°39' E 135°28'0 0.0
2017-Jul-18 18:02N 34°39' E 135°28'0 0.0
2017-Jul-18 17:46N 34°39' E 135°28'0 0.0
2017-Jul-18 17:28N 34°39' E 135°28'2 4.5
2017-Jul-18 17:00N 34°39' E 135°25'0 0.2
2017-Jul-18 16:30N 34°39' E 135°26'1 2.5
2017-Jul-18 16:00N 34°39' E 135°27'1 0.7
2017-Jul-18 14:57N 34°39' E 135°28'0 0.0
2017-Jul-18 13:58N 34°39' E 135°28'0 0.0
2017-Jul-18 13:25N 34°39' E 135°28'0 0.0
2017-Jul-18 12:56N 34°39' E 135°28'0 0.0
2017-Jul-18 12:15N 34°39' E 135°28'0 0.0
2017-Jul-18 11:56N 34°39' E 135°28'0 0.0
2017-Jul-18 11:30N 34°39' E 135°28'1 1.8
2017-Jul-18 11:00N 34°39' E 135°27'2 3.9
2017-Jul-18 10:30N 34°40' E 135°25'3 5.3
2017-Jul-18 09:59N 34°39' E 135°28'0 0.0
2017-Jul-18 09:18N 34°39' E 135°28'0 0.0
2017-Jul-18 08:58N 34°39' E 135°28'0 0.0
2017-Jul-18 07:14N 34°39' E 135°28'0 0.0
2017-Jul-18 07:00N 34°39' E 135°28'0 0.0
2017-Jul-18 06:14N 34°39' E 135°28'0 0.0
2017-Jul-18 05:28N 34°39' E 135°28'0 0.0
2017-Jul-18 05:00N 34°39' E 135°28'0 0.0
2017-Jul-18 04:28N 34°39' E 135°28'0 0.0
2017-Jul-18 02:58N 34°39' E 135°28'0 0.0
2017-Jul-18 02:28N 34°39' E 135°28'0 0.0
2017-Jul-18 01:56N 34°39' E 135°28'0 0.0
2017-Jul-18 01:30N 34°39' E 135°28'2 4.3
2017-Jul-18 01:00N 34°39' E 135°25'1 2.1
2017-Jul-18 00:30N 34°38' E 135°25'1 1.1
2017-Jul-18 00:00N 34°38' E 135°24'0 0.8
2017-Jul-17 23:30N 34°38' E 135°24'0 0.9
2017-Jul-17 23:00N 34°38' E 135°23'0 0.2
2017-Jul-17 22:30N 34°38' E 135°23'1 1.4
2017-Jul-17 22:00N 34°38' E 135°24'2 4.9
2017-Jul-17 21:30N 34°38' E 135°27'0 0.3
2017-Jul-17 21:00N 34°38' E 135°27'0 0.1
2017-Jul-17 20:30N 34°38' E 135°26'1 0.2
2017-Jul-17 12:46N 34°39' E 135°28'0 0.0
2017-Jul-17 07:45N 34°39' E 135°28'310.4
2017-Jul-17 07:30N 34°39' E 135°25'510.5
2017-Jul-17 07:00N 34°33' E 135°24'1 1.7
2017-Jul-17 06:09N 34°33' E 135°26'0 1.1
2017-Jul-17 05:56N 34°33' E 135°26'2 3.7
2017-Jul-17 05:29N 34°33' E 135°24'1 0.2
2017-Jul-16 21:26N 34°31' E 135°24'0 0.3
2017-Jul-16 20:47N 34°32' E 135°24'2 5.1
2017-Jul-16 20:28N 34°33' E 135°24'510.9
2017-Jul-16 20:00N 34°38' E 135°24'4 6.6
2017-Jul-16 19:28N 34°39' E 135°28'0 0.0
2017-Jul-16 19:00N 34°39' E 135°28'0 0.0
2017-Jul-16 18:18N 34°39' E 135°28'0 0.0
2017-Jul-16 17:58N 34°39' E 135°28'0 0.0
2017-Jul-16 17:00N 34°39' E 135°28'0 0.0
2017-Jul-16 16:29N 34°39' E 135°28'0 0.0
2017-Jul-16 15:59N 34°39' E 135°28'0 0.0
2017-Jul-16 15:26N 34°39' E 135°28'0 0.0
2017-Jul-16 14:58N 34°39' E 135°28'0 0.0
2017-Jul-16 14:23N 34°39' E 135°28'0 0.0
2017-Jul-16 13:57N 34°39' E 135°28'0 0.0
2017-Jul-16 13:28N 34°39' E 135°28'0 0.0
2017-Jul-16 12:59N 34°39' E 135°28'0 0.0
2017-Jul-16 12:30N 34°39' E 135°28'0 0.0
2017-Jul-16 11:59N 34°39' E 135°28'0 0.0
2017-Jul-16 11:24N 34°39' E 135°28'2 6.1
2017-Jul-16 11:00N 34°39' E 135°25'510.5
2017-Jul-16 10:30N 34°34' E 135°24'2 3.6
2017-Jul-16 10:00N 34°32' E 135°24'2 3.1
2017-Jul-16 09:30N 34°33' E 135°23'0 0.0
2017-Jul-16 08:55N 34°33' E 135°23'3 6.1
2017-Jul-16 08:30N 34°31' E 135°24'0 0.0
2017-Jul-16 07:56N 34°31' E 135°24'0 0.0
2017-Jul-16 07:30N 34°31' E 135°24'0 0.0
2017-Jul-16 06:52N 34°31' E 135°24'0 0.0
2017-Jul-16 06:26N 34°31' E 135°24'0 0.0
2017-Jul-16 06:00N 34°31' E 135°24'0 0.0
2017-Jul-16 05:29N 34°31' E 135°24'0 0.0
2017-Jul-16 04:58N 34°31' E 135°24'0 0.0
2017-Jul-16 04:30N 34°31' E 135°24'0 0.0
2017-Jul-16 03:58N 34°31' E 135°24'1 2.0
2017-Jul-16 03:25N 34°32' E 135°23'3 6.5
2017-Jul-16 02:59N 34°33' E 135°26'0 0.0
2017-Jul-16 02:30N 34°33' E 135°26'0 0.0
2017-Jul-16 01:58N 34°33' E 135°26'0 0.7
2017-Jul-16 01:22N 34°34' E 135°26'1 2.5
2017-Jul-16 00:59N 34°33' E 135°24'4 8.8
2017-Jul-16 00:30N 34°33' E 135°19'1 1.8
2017-Jul-16 00:00N 34°34' E 135°18'2 3.4
2017-Jul-15 23:29N 34°35' E 135°20'510.9
2017-Jul-15 23:00N 34°39' E 135°25'3 5.5
2017-Jul-15 22:30N 34°39' E 135°28'0 0.0
2017-Jul-15 22:00N 34°39' E 135°28'0 0.0
2017-Jul-15 21:30N 34°39' E 135°28'0 0.0
2017-Jul-15 20:58N 34°39' E 135°28'0 0.0
2017-Jul-15 20:30N 34°39' E 135°28'0 0.0
2017-Jul-15 20:00N 34°39' E 135°28'0 0.0
2017-Jul-15 19:30N 34°39' E 135°28'0 0.0
2017-Jul-15 18:59N 34°39' E 135°28'0 0.0
2017-Jul-15 18:30N 34°39' E 135°28'0 0.0
2017-Jul-15 18:00N 34°39' E 135°28'0 0.0
2017-Jul-15 17:30N 34°39' E 135°28'0 0.0
2017-Jul-15 16:58N 34°39' E 135°28'0 0.0
2017-Jul-15 16:30N 34°39' E 135°28'0 0.0
2017-Jul-15 16:00N 34°39' E 135°28'0 0.0
2017-Jul-15 15:30N 34°39' E 135°28'0 0.0
2017-Jul-15 15:00N 34°39' E 135°28'0 0.0
2017-Jul-15 14:00N 34°39' E 135°28'0 0.0
2017-Jul-15 13:30N 34°39' E 135°28'0 0.0
2017-Jul-15 13:00N 34°39' E 135°28'0 0.0
2017-Jul-15 12:30N 34°39' E 135°28'0 0.0
2017-Jul-15 11:59N 34°39' E 135°28'0 0.0
2017-Jul-15 11:29N 34°39' E 135°28'0 0.0
2017-Jul-15 09:55N 34°39' E 135°28'0 0.0
2017-Jul-15 09:22N 34°39' E 135°28'0 0.0
2017-Jul-15 08:56N 34°39' E 135°28'0 0.0
2017-Jul-15 08:30N 34°39' E 135°28'4 9.0
2017-Jul-15 08:00N 34°37' E 135°23'3 6.8
2017-Jul-15 07:30N 34°34' E 135°25'2 3.3
2017-Jul-15 07:00N 34°34' E 135°23'3 5.6
2017-Jul-15 06:29N 34°36' E 135°25'1 1.3
2017-Jul-15 05:50N 34°35' E 135°26'2 4.6
2017-Jul-15 05:30N 34°36' E 135°25'1 1.4
2017-Jul-15 05:00N 34°36' E 135°24'0 0.0
2017-Jul-15 04:30N 34°36' E 135°24'0 0.0
2017-Jul-15 04:00N 34°36' E 135°24'0 0.0
2017-Jul-15 03:30N 34°36' E 135°24'0 0.0
2017-Jul-15 03:00N 34°36' E 135°24'0 0.0
2017-Jul-15 02:30N 34°36' E 135°24'0 0.0
2017-Jul-15 01:57N 34°36' E 135°24'0 0.0
2017-Jul-15 01:30N 34°36' E 135°24'0 0.0
2017-Jul-15 00:51N 34°36' E 135°24'0 0.0
2017-Jul-15 00:30N 34°36' E 135°24'0 0.0
2017-Jul-15 00:00N 34°36' E 135°24'0 0.0
2017-Jul-14 23:29N 34°36' E 135°24'3 6.1
2017-Jul-14 23:00N 34°39' E 135°24'1 2.1
2017-Jul-14 22:30N 34°38' E 135°23'1 2.5
2017-Jul-14 22:00N 34°39' E 135°25'3 4.9
2017-Jul-14 21:27N 34°39' E 135°28'0 0.0
2017-Jul-14 20:48N 34°39' E 135°28'0 0.0
2017-Jul-14 20:30N 34°39' E 135°28'0 0.0
2017-Jul-14 19:59N 34°39' E 135°28'0 0.0
2017-Jul-14 19:30N 34°39' E 135°28'0 0.0
2017-Jul-14 18:59N 34°39' E 135°28'0 0.0
2017-Jul-14 18:28N 34°39' E 135°28'0 0.0
2017-Jul-14 17:48N 34°39' E 135°28'0 0.0
2017-Jul-14 17:25N 34°39' E 135°28'0 0.0
2017-Jul-14 16:45N 34°39' E 135°28'0 0.0
2017-Jul-14 15:42N 34°39' E 135°28'0 0.0
2017-Jul-14 15:30N 34°39' E 135°28'0 0.0
2017-Jul-14 13:47N 34°39' E 135°28'0 0.0
2017-Jul-14 11:51N 34°39' E 135°28'0 0.0
2017-Jul-14 10:23N 34°39' E 135°28'0 0.0
2017-Jul-14 10:00N 34°39' E 135°28'0 0.0
2017-Jul-14 09:27N 34°39' E 135°28'0 0.0
2017-Jul-14 08:59N 34°39' E 135°28'0 0.0
2017-Jul-14 08:29N 34°39' E 135°28'0 0.0
2017-Jul-14 05:31N 34°39' E 135°28'0 0.0
2017-Jul-14 05:07N 34°39' E 135°28'0 0.0
2017-Jul-14 04:52N 34°39' E 135°28'4 9.8
2017-Jul-14 04:30N 34°38' E 135°24'611.5
2017-Jul-14 04:00N 34°32' E 135°23'1 2.7
2017-Jul-14 03:27N 34°31' E 135°23'1 2.5
2017-Jul-14 02:55N 34°32' E 135°23'0 0.9
2017-Jul-14 02:27N 34°32' E 135°22'3 5.7
2017-Jul-14 01:57N 34°35' E 135°23'4 9.6
2017-Jul-14 01:30N 34°39' E 135°26'2 1.4
2017-Jul-14 00:13N 34°39' E 135°28'0 0.0
2017-Jul-13 23:49N 34°39' E 135°28'0 0.0
2017-Jul-13 23:30N 34°39' E 135°28'0 0.0
2017-Jul-13 22:59N 34°39' E 135°28'0 0.0
2017-Jul-13 22:30N 34°39' E 135°28'0 0.0
2017-Jul-13 21:50N 34°39' E 135°28'0 0.0
2017-Jul-13 21:23N 34°39' E 135°28'0 0.0
2017-Jul-13 21:00N 34°39' E 135°28'0 0.0
2017-Jul-13 20:30N 34°39' E 135°28'0 0.0
2017-Jul-13 19:59N 34°39' E 135°28'0 0.0
2017-Jul-13 19:30N 34°39' E 135°28'0 0.0
2017-Jul-13 16:42N 34°39' E 135°28'0 0.0
2017-Jul-13 16:30N 34°39' E 135°28'0 0.0
2017-Jul-13 15:36N 34°39' E 135°28'0 0.0
2017-Jul-13 15:20N 34°39' E 135°28'0 0.0
2017-Jul-13 14:57N 34°39' E 135°28'0 0.0
2017-Jul-13 14:30N 34°39' E 135°28'0 0.0
2017-Jul-13 13:53N 34°39' E 135°28'0 0.0
2017-Jul-13 12:25N 34°39' E 135°28'0 0.0
2017-Jul-13 10:19N 34°39' E 135°28'0 0.0
2017-Jul-13 08:40N 34°39' E 135°28'0 0.0
2017-Jul-13 08:30N 34°39' E 135°28'2 4.0
2017-Jul-13 08:00N 34°39' E 135°26'0 0.1
2017-Jul-13 07:29N 34°39' E 135°26'2 3.2
2017-Jul-13 06:59N 34°39' E 135°27'0 0.1
2017-Jul-13 00:40N 34°39' E 135°28'0 0.0
2017-Jul-13 00:27N 34°39' E 135°28'0 0.0
2017-Jul-13 00:00N 34°39' E 135°28'0 0.0
2017-Jul-12 23:22N 34°39' E 135°28'0 0.0
2017-Jul-12 22:52N 34°39' E 135°28'3 7.0
2017-Jul-12 22:30N 34°39' E 135°25'1 2.3
2017-Jul-12 22:00N 34°38' E 135°24'2 3.6
2017-Jul-12 21:30N 34°39' E 135°26'2 2.7
2017-Jul-12 20:52N 34°39' E 135°28'0 0.0
2017-Jul-12 20:29N 34°39' E 135°28'0 0.0
2017-Jul-12 19:52N 34°39' E 135°28'0 0.0
2017-Jul-12 10:25N 34°39' E 135°28'3 8.0
2017-Jul-12 10:00N 34°39' E 135°24'0 0.2
2017-Jul-12 09:30N 34°39' E 135°24'3 0.4
2017-Jul-11 23:46N 34°39' E 135°28'2 9.3
2017-Jul-11 23:31N 34°39' E 135°25'1 2.5
2017-Jul-11 23:00N 34°38' E 135°25'1 2.1
2017-Jul-11 22:30N 34°38' E 135°23'0 0.7
2017-Jul-11 22:00N 34°38' E 135°23'1 1.1
2017-Jul-11 21:30N 34°38' E 135°23'4 7.2
2017-Jul-11 21:00N 34°40' E 135°27'1 2.8
2017-Jul-11 20:30N 34°39' E 135°26'2 1.4
2017-Jul-11 19:11N 34°39' E 135°28'0 0.0
2017-Jul-11 18:51N 34°39' E 135°28'0 0.0
2017-Jul-11 18:29N 34°39' E 135°28'0 0.0
2017-Jul-11 17:18N 34°39' E 135°28'0 0.0
2017-Jul-11 17:00N 34°39' E 135°28'0 0.0
2017-Jul-11 16:25N 34°39' E 135°28'0 0.0
2017-Jul-11 15:54N 34°39' E 135°28'0 0.0
2017-Jul-11 15:30N 34°39' E 135°28'0 0.0
2017-Jul-11 14:58N 34°39' E 135°28'0 0.0
2017-Jul-11 14:15N 34°39' E 135°28'0 0.0
2017-Jul-11 13:53N 34°39' E 135°28'0 0.0
2017-Jul-11 13:21N 34°39' E 135°28'0 0.0
2017-Jul-11 12:57N 34°39' E 135°28'0 0.0
2017-Jul-11 12:30N 34°39' E 135°28'0 0.0
2017-Jul-11 11:55N 34°39' E 135°28'0 0.0
2017-Jul-11 11:28N 34°39' E 135°28'0 0.0
2017-Jul-11 10:59N 34°39' E 135°28'0 0.0
2017-Jul-11 10:30N 34°39' E 135°28'0 0.0
2017-Jul-11 09:58N 34°39' E 135°28'0 0.0
2017-Jul-11 09:30N 34°39' E 135°28'0 0.0
2017-Jul-11 08:59N 34°39' E 135°28'0 0.0
2017-Jul-11 08:30N 34°39' E 135°28'0 0.0
2017-Jul-11 06:00N 34°39' E 135°28'  

Dump ship's entire track history